CDT,Max TemperatureF,Mean TemperatureF,Min TemperatureF,Max Dew PointF,MeanDew PointF,Min DewpointF,Max Humidity, Mean Humidity, Min Humidity, Max Sea Level PressureIn, Mean Sea Level PressureIn, Min Sea Level PressureIn, Max VisibilityMiles, Mean VisibilityMiles, Min VisibilityMiles, Max Wind SpeedMPH, Mean Wind SpeedMPH, Max Gust SpeedMPH,PrecipitationIn, CloudCover, Events, WindDirDegrees
2013-8-1,87,75,64,68,64,60,96,81,45,30.16,30.04,29.88,10,10,2,45,8,66,0.08,2,Rain-Thunderstorm,141
2013-8-2,75,68,63,67,65,63,100,91,69,30.10,29.98,29.89,10,7,1,18,6,20,0.00,6,Rain,74
2013-8-3,71,65,59,63,61,58,99,89,69,30.25,30.17,30.10,10,9,2,24,9,30,0.22,6,Rain,95
2013-8-4,78,68,60,68,62,57,96,85,70,30.22,30.10,29.99,10,10,3,17,10,22,0.02,6,Rain,146
2013-8-5,81,74,67,68,65,60,99,77,50,30.02,29.97,29.92,10,10,4,12,8,26,0.00,1,Rain-Thunderstorm,112
2013-8-6,84,72,61,68,61,56,96,69,42,30.07,29.93,29.89,10,10,10,26,9,34,0.00,2,Rain,21
2013-8-7,82,70,59,64,58,54,93,65,39,30.06,30.02,29.99,10,10,10,13,3,,0.00,2,Rain,214
2013-8-8,78,71,64,68,64,62,95,82,59,30.09,30.05,29.99,10,10,3,17,5,24,0.38,4,Rain-Thunderstorm,215
2013-8-9,78,68,59,66,63,59,100,85,57,30.20,30.14,30.09,10,8,0,22,3,33,0.60,4,Fog-Rain-Thunderstorm,114
2013-8-10,85,72,60,65,60,55,98,70,37,30.19,30.13,30.03,10,10,10,17,6,24,0.02,2,,191
2013-8-11,77,70,63,66,63,59,99,81,68,30.14,30.09,30.05,10,10,1,14,9,18,0.00,3,,23
2013-8-12,78,69,60,68,63,60,100,83,58,30.16,30.12,30.09,10,8,0,9,3,,0.00,3,Fog,85
2013-8-13,77,70,63,66,63,61,98,82,61,30.22,30.17,30.13,10,9,2,14,7,16,0.18,3,Rain-Thunderstorm,113
2013-8-14,75,68,61,65,62,60,98,88,65,30.19,30.12,30.07,10,9,2,18,6,25,0.75,6,Rain-Thunderstorm,104
2013-8-15,67,63,60,64,62,60,100,95,85,30.15,30.08,30.03,10,6,0,10,6,,0.00,8,Fog,74
2013-8-16,77,68,59,63,61,58,100,82,56,30.16,30.14,30.10,10,6,0,14,5,18,0.00,4,Fog,134
2013-8-17,79,71,63,67,65,62,97,83,65,30.15,30.09,30.04,10,9,4,20,14,24,0.00,5,,181
2013-8-18,80,71,62,67,65,62,97,81,62,30.08,30.04,29.99,10,10,7,20,13,25,0.00,2,,182
2013-8-19,90,78,66,71,66,62,93,72,40,30.01,29.97,29.92,10,10,7,14,9,18,0.00,0,,232
2013-8-20,92,80,68,71,68,66,93,69,43,29.95,29.90,29.85,10,10,10,17,8,23,0.00,0,,183
2013-8-21,85,76,66,72,67,62,97,73,58,30.09,29.98,29.91,10,10,2,16,7,20,0.42,2,Rain-Thunderstorm,138
2013-8-22,77,68,61,69,66,62,100,92,74,30.17,30.12,30.02,10,7,0,9,5,,0.01,6,Fog-Thunderstorm,58
2013-8-23,86,76,68,71,69,64,99,82,54,30.12,30.01,29.92,10,8,2,17,7,23,0.00,3,,147
2013-8-24,92,80,69,71,66,62,87,63,39,29.95,29.92,29.89,10,10,10,20,16,28,0.00,0,,176
2013-8-25,94,82,71,67,64,61,77,54,34,30.02,29.99,29.95,10,10,10,23,16,31,0.00,0,,183
2013-8-26,95,84,73,72,65,62,81,57,35,30.01,29.96,29.91,10,10,10,17,12,23,0.00,0,,190
2013-8-27,96,82,69,72,64,60,80,55,33,29.98,29.94,29.91,10,10,10,13,8,18,0.00,0,,182
2013-8-28,95,81,67,69,62,58,79,58,28,30.03,29.99,29.94,10,10,10,12,7,,0.00,0,,159
2013-8-29,98,80,63,69,64,58,94,64,26,30.03,29.98,29.94,10,10,10,10,6,,0.00,0,,197
2013-8-30,89,78,66,70,67,63,97,70,41,30.08,30.02,29.91,10,10,7,39,5,48,0.01,0,Rain-Thunderstorm,38
2013-8-31,93,78,63,66,61,55,89,59,31,30.00,29.92,29.87,10,10,10,24,10,38,0.00,1,Rain-Thunderstorm,251